createdAt,value
2019-04-07T00:00:22.246Z,77.03
2019-04-07T00:02:53.139Z,76.79
2019-04-07T00:05:23.572Z,76.77
2019-04-07T00:07:55.288Z,76.65
2019-04-07T00:10:25.955Z,76.33
2019-04-07T00:12:58.331Z,76.26
2019-04-07T00:15:29.016Z,76.30
2019-04-07T00:17:59.421Z,76.26
2019-04-07T00:20:29.865Z,75.86
2019-04-07T00:23:00.188Z,76.24
2019-04-07T00:25:30.579Z,76.04
2019-04-07T00:28:01.005Z,76.00
2019-04-07T00:30:31.646Z,75.96
2019-04-07T00:33:02.163Z,76.21
2019-04-07T00:35:34.843Z,76.43
2019-04-07T00:38:05.417Z,76.81
2019-04-07T00:40:37.141Z,76.89
2019-04-07T00:43:07.512Z,77.05
2019-04-07T00:45:37.958Z,77.02
2019-04-07T00:48:08.239Z,77.12
2019-04-07T00:50:38.611Z,77.15
2019-04-07T00:53:09.060Z,77.07
2019-04-07T00:55:39.680Z,77.62
2019-04-07T00:58:09.985Z,77.54
2019-04-07T01:00:42.729Z,77.74
2019-04-07T01:03:13.681Z,77.80
2019-04-07T01:05:44.045Z,78.78
2019-04-07T01:08:15.444Z,79.54
2019-04-07T01:10:45.912Z,79.96
2019-04-07T01:13:16.605Z,80.34
2019-04-07T01:15:47.047Z,80.58
2019-04-07T01:18:17.402Z,79.99
2019-04-07T01:20:48.451Z,80.12
2019-04-07T01:23:19.350Z,80.78
2019-04-07T01:25:50.074Z,80.67
2019-04-07T01:28:20.874Z,80.60
2019-04-07T01:30:51.699Z,80.62
2019-04-07T01:33:22.296Z,80.02
2019-04-07T01:35:53.026Z,79.51
2019-04-07T01:38:23.450Z,79.61
2019-04-07T01:41:06.304Z,79.44
2019-04-07T01:43:58.399Z,79.13
2019-04-07T01:46:38.705Z,79.15
2019-04-07T01:49:27.262Z,78.78
2019-04-07T01:52:21.092Z,78.47
2019-04-07T01:55:09.205Z,78.51
2019-04-07T01:57:47.762Z,78.89
2019-04-07T02:00:24.980Z,79.43
2019-04-07T02:03:04.802Z,79.11
2019-04-07T02:05:59.287Z,78.95
2019-04-07T02:08:47.521Z,79.23
2019-04-07T02:11:35.466Z,79.18
2019-04-07T02:14:37.772Z,79.20
2019-04-07T02:17:33.369Z,79.06
2019-04-07T02:20:09.279Z,79.29
2019-04-07T02:22:58.618Z,79.26
2019-04-07T02:26:08.870Z,79.48
2019-04-07T02:28:52.640Z,79.57
2019-04-07T02:31:45.079Z,79.60
2019-04-07T02:34:27.885Z,79.95
2019-04-07T02:37:08.431Z,80.02
2019-04-07T02:39:54.947Z,80.07
2019-04-07T02:42:42.910Z,80.25
2019-04-07T02:45:38.313Z,80.68
2019-04-07T02:48:18.874Z,80.84
2019-04-07T02:51:13.131Z,80.76
2019-04-07T02:54:09.188Z,81.05
2019-04-07T02:56:52.535Z,81.94
2019-04-07T02:59:48.133Z,81.45
2019-04-07T03:02:41.192Z,81.80
2019-04-07T03:05:30.532Z,82.56
2019-04-07T03:08:08.663Z,82.88
2019-04-07T03:11:05.837Z,83.65
2019-04-07T03:13:54.442Z,83.52
2019-04-07T03:16:36.203Z,82.79
2019-04-07T03:19:22.061Z,83.21
2019-04-07T03:22:16.049Z,83.48
2019-04-07T03:24:52.973Z,83.69
2019-04-07T03:27:48.773Z,83.69
2019-04-07T03:30:28.400Z,84.23
2019-04-07T03:33:22.797Z,85.99
2019-04-07T03:36:18.001Z,85.81
2019-04-07T03:39:13.501Z,84.97
2019-04-07T03:42:03.042Z,84.14
2019-04-07T03:44:55.426Z,84.20
2019-04-07T03:47:40.330Z,83.92
2019-04-07T03:50:33.359Z,85.04
2019-04-07T03:53:17.986Z,84.80
2019-04-07T03:55:57.859Z,83.93
2019-04-07T03:58:39.775Z,83.15
2019-04-07T04:01:29.986Z,83.30
2019-04-07T04:04:34.866Z,84.92
2019-04-07T04:07:20.276Z,84.24
2019-04-07T04:10:04.136Z,84.20
2019-04-07T04:12:41.816Z,84.67
2019-04-07T04:15:22.282Z,85.31
2019-04-07T04:17:53.800Z,85.18
2019-04-07T04:20:24.261Z,83.61
2019-04-07T04:22:54.795Z,83.44
2019-04-07T04:25:25.035Z,83.84
2019-04-07T04:27:55.262Z,83.55
2019-04-07T04:30:25.748Z,82.48
2019-04-07T04:32:56.233Z,80.83
2019-04-07T04:35:26.691Z,80.94
2019-04-07T04:37:57.009Z,81.57
2019-04-07T04:40:28.059Z,82.15
2019-04-07T04:42:58.600Z,82.30
2019-04-07T04:45:29.906Z,82.03
2019-04-07T04:48:00.252Z,81.67
2019-04-07T04:50:30.522Z,81.79
2019-04-07T04:53:01.966Z,80.94
2019-04-07T04:55:32.462Z,79.13
2019-04-07T04:58:02.760Z,77.43
2019-04-07T05:00:34.051Z,76.42
2019-04-07T05:03:05.740Z,77.62
2019-04-07T05:05:36.795Z,76.43
2019-04-07T05:08:08.245Z,74.40
2019-04-07T05:10:39.212Z,75.57
2019-04-07T05:13:09.849Z,73.05
2019-04-07T05:15:44.457Z,70.77
2019-04-07T05:18:16.564Z,70.00
2019-04-07T05:20:47.743Z,70.71
2019-04-07T05:23:19.638Z,68.75
2019-04-07T05:25:50.429Z,65.72
2019-04-07T05:28:21.243Z,64.49
2019-04-07T05:30:54.324Z,62.83
2019-04-07T05:33:26.683Z,62.46
2019-04-07T05:35:59.348Z,61.66
2019-04-07T05:38:30.258Z,61.38
2019-04-07T05:41:01.873Z,61.28
2019-04-07T05:43:33.869Z,60.99
2019-04-07T05:46:06.512Z,58.13
2019-04-07T05:48:36.098Z,57.78
2019-04-07T05:51:07.114Z,58.89
2019-04-07T05:53:37.739Z,55.81
2019-04-07T05:56:08.632Z,56.22
2019-04-07T05:58:41.152Z,57.21
2019-04-07T06:01:10.850Z,56.64
2019-04-07T06:03:42.842Z,56.04
2019-04-07T06:06:13.432Z,55.25
2019-04-07T06:08:46.954Z,58.99
2019-04-07T06:11:16.964Z,59.37
2019-04-07T06:13:47.516Z,59.14
2019-04-07T06:16:18.535Z,62.03
2019-04-07T06:18:50.150Z,59.60
2019-04-07T06:21:23.404Z,57.66
2019-04-07T06:23:58.406Z,56.35
2019-04-07T06:26:27.789Z,54.79
2019-04-07T06:28:58.849Z,55.40
2019-04-07T06:31:32.220Z,56.66
2019-04-07T06:34:04.180Z,59.10
2019-04-07T06:36:35.063Z,56.85
2019-04-07T06:39:08.387Z,57.55
2019-04-07T06:41:39.028Z,56.32
2019-04-07T06:44:13.502Z,58.43
2019-04-07T06:46:53.578Z,54.13
2019-04-07T06:49:54.968Z,53.29
2019-04-07T06:52:41.037Z,58.33
2019-04-07T06:55:32.840Z,55.72
2019-04-07T06:58:21.028Z,59.26
2019-04-07T07:01:05.877Z,61.65
2019-04-07T07:03:53.847Z,59.18
2019-04-07T07:06:37.341Z,57.15
2019-04-07T07:09:26.547Z,56.31
2019-04-07T07:12:22.701Z,58.39
2019-04-07T07:15:05.998Z,58.93
2019-04-07T07:17:42.243Z,54.44
2019-04-07T07:20:38.190Z,54.63
2019-04-07T07:23:15.754Z,55.72
2019-04-07T07:25:46.520Z,52.31
2019-04-07T07:28:17.341Z,50.40
2019-04-07T07:30:51.040Z,55.62
2019-04-07T07:33:20.292Z,56.53
2019-04-07T07:35:50.847Z,54.46
2019-04-07T07:38:21.362Z,47.70
2019-04-07T07:40:51.658Z,46.99
2019-04-07T07:43:22.712Z,46.91
2019-04-07T07:45:52.998Z,46.78
2019-04-07T07:48:26.183Z,48.83
2019-04-07T07:50:55.831Z,44.27
2019-04-07T07:53:28.245Z,44.62
2019-04-07T07:55:58.189Z,45.94
2019-04-07T07:58:31.619Z,44.23
2019-04-07T08:01:01.432Z,43.09
2019-04-07T08:03:31.791Z,45.08
2019-04-07T08:06:04.655Z,43.42
2019-04-07T08:08:34.267Z,40.47
2019-04-07T08:11:04.635Z,37.55
2019-04-07T08:13:43.441Z,38.09
2019-04-07T08:16:09.832Z,37.49
2019-04-07T08:18:43.417Z,37.32
2019-04-07T08:21:12.603Z,39.79
2019-04-07T08:23:45.419Z,45.61
2019-04-07T08:26:15.935Z,43.43
2019-04-07T08:28:46.316Z,47.36
2019-04-07T08:31:19.643Z,48.00
2019-04-07T08:33:51.825Z,47.74
2019-04-07T08:36:23.769Z,47.05
2019-04-07T08:38:56.990Z,46.01
2019-04-07T08:41:29.131Z,45.02
2019-04-07T08:44:00.246Z,46.58
2019-04-07T08:46:39.435Z,46.65
2019-04-07T08:49:06.559Z,45.97
2019-04-07T08:51:36.818Z,47.28
2019-04-07T08:54:07.391Z,47.15
2019-04-07T08:56:37.740Z,47.80
2019-04-07T08:59:16.811Z,47.67
2019-04-07T09:01:45.200Z,47.47
2019-04-07T09:04:16.967Z,44.98
2019-04-07T09:06:48.768Z,45.30
2019-04-07T09:09:31.190Z,45.51
2019-04-07T09:11:54.987Z,46.11
2019-04-07T09:14:25.214Z,46.93
2019-04-07T09:17:35.495Z,46.66
2019-04-07T09:20:13.513Z,45.87
2019-04-07T09:23:03.011Z,48.01
2019-04-07T09:25:53.175Z,47.27
2019-04-07T09:28:33.175Z,45.72
2019-04-07T09:31:09.614Z,45.08
2019-04-07T09:34:18.226Z,45.67
2019-04-07T09:37:04.653Z,44.87
2019-04-07T09:39:58.518Z,45.32
2019-04-07T09:43:01.332Z,44.83
2019-04-07T09:45:51.918Z,46.54
2019-04-07T09:48:40.565Z,44.94
2019-04-07T09:51:58.412Z,45.55
2019-04-07T09:54:51.696Z,45.07
2019-04-07T09:57:54.888Z,43.65
2019-04-07T10:00:36.313Z,44.05
2019-04-07T10:03:35.467Z,44.43
2019-04-07T10:06:28.058Z,44.04
2019-04-07T10:09:23.192Z,43.04
2019-04-07T10:12:11.038Z,42.26
2019-04-07T10:15:02.158Z,42.43
2019-04-07T10:18:00.522Z,42.64
2019-04-07T10:21:01.710Z,43.31
2019-04-07T10:23:50.989Z,41.30
2019-04-07T10:26:32.534Z,42.91
2019-04-07T10:29:26.457Z,42.42
2019-04-07T10:32:11.395Z,41.55
2019-04-07T10:35:08.093Z,43.56
2019-04-07T10:38:15.405Z,42.89
2019-04-07T10:40:55.552Z,41.90
2019-04-07T10:43:53.648Z,43.24
2019-04-07T10:46:41.658Z,44.03
2019-04-07T10:49:40.614Z,44.92
2019-04-07T10:52:31.446Z,43.25
2019-04-07T10:55:20.733Z,43.59
2019-04-07T10:57:59.822Z,43.48
2019-04-07T11:00:50.788Z,42.06
2019-04-07T11:03:35.245Z,42.15
2019-04-07T11:06:21.520Z,40.94
2019-04-07T11:09:21.126Z,41.64
2019-04-07T11:12:28.821Z,43.15
2019-04-07T11:15:21.417Z,43.29
2019-04-07T11:18:16.506Z,42.97
2019-04-07T11:20:57.230Z,44.52
2019-04-07T11:23:41.456Z,44.33
2019-04-07T11:26:23.559Z,44.09
2019-04-07T11:29:04.599Z,42.29
2019-04-07T11:31:40.551Z,42.34
2019-04-07T11:34:29.328Z,44.84
2019-04-07T11:37:09.788Z,43.25
2019-04-07T11:39:53.470Z,43.22
2019-04-07T11:42:46.063Z,41.62
2019-04-07T11:45:56.433Z,42.67
2019-04-07T11:48:25.842Z,42.36
2019-04-07T11:51:07.289Z,44.04
2019-04-07T11:53:54.808Z,43.77
2019-04-07T11:56:43.416Z,42.73
2019-04-07T11:59:31.726Z,41.22
2019-04-07T12:02:18.649Z,41.83
2019-04-07T12:05:05.359Z,43.33
2019-04-07T12:08:13.917Z,43.38
2019-04-07T12:11:06.624Z,44.50
2019-04-07T12:13:44.632Z,43.88
2019-04-07T12:16:35.091Z,44.60
2019-04-07T12:19:12.597Z,43.40
2019-04-07T12:21:55.972Z,42.92
2019-04-07T12:24:49.081Z,43.80
2019-04-07T12:27:45.170Z,43.89
2019-04-07T12:30:37.978Z,44.35
2019-04-07T12:33:32.891Z,43.92
2019-04-07T12:36:30.823Z,43.56
2019-04-07T12:39:19.007Z,42.84
2019-04-07T12:41:58.077Z,42.97
2019-04-07T12:44:52.701Z,43.88
2019-04-07T12:47:37.522Z,43.15
2019-04-07T12:50:26.966Z,44.29
2019-04-07T12:53:15.443Z,44.92
2019-04-07T12:56:11.427Z,45.39
2019-04-07T12:58:58.329Z,45.52
2019-04-07T13:01:49.583Z,42.80
2019-04-07T13:04:37.874Z,44.02
2019-04-07T13:07:20.440Z,43.56
2019-04-07T13:10:00.303Z,43.33
2019-04-07T13:12:57.183Z,43.36
2019-04-07T13:15:48.943Z,44.27
2019-04-07T13:18:37.238Z,44.38
2019-04-07T13:21:16.635Z,44.33
2019-04-07T13:24:22.041Z,43.48
2019-04-07T13:27:05.830Z,43.66
2019-04-07T13:29:49.952Z,43.91
2019-04-07T13:32:43.219Z,44.24
2019-04-07T13:35:38.723Z,43.65
2019-04-07T13:38:34.005Z,43.74
2019-04-07T13:41:22.152Z,43.51
2019-04-07T13:44:12.845Z,43.27
2019-04-07T13:47:12.232Z,42.74
2019-04-07T13:50:02.407Z,42.57
2019-04-07T13:52:55.001Z,42.70
2019-04-07T13:55:32.300Z,42.60
2019-04-07T13:58:19.684Z,43.67
2019-04-07T14:01:18.105Z,43.25
2019-04-07T14:04:24.205Z,44.00
2019-04-07T14:07:19.873Z,43.04
2019-04-07T14:10:15.589Z,43.56
2019-04-07T14:13:06.222Z,44.00
2019-04-07T14:15:54.341Z,43.40
2019-04-07T14:18:54.125Z,43.11
2019-04-07T14:21:32.417Z,43.67
2019-04-07T14:24:15.213Z,43.01
2019-04-07T14:27:00.685Z,42.95
2019-04-07T14:29:52.760Z,43.56
2019-04-07T14:32:49.841Z,43.52
2019-04-07T14:35:39.131Z,42.69
2019-04-07T14:38:30.131Z,42.65
2019-04-07T14:41:22.103Z,42.80
2019-04-07T14:44:20.422Z,43.14
2019-04-07T14:47:09.646Z,41.96
2019-04-07T14:50:07.968Z,41.93
2019-04-07T14:53:06.656Z,41.90
2019-04-07T14:55:54.648Z,41.79
2019-04-07T14:58:35.844Z,41.73
2019-04-07T15:01:21.425Z,42.42
2019-04-07T15:03:52.464Z,42.77
2019-04-07T15:06:22.891Z,42.89
2019-04-07T15:09:03.111Z,42.32
2019-04-07T15:12:16.931Z,43.09
2019-04-07T15:14:37.380Z,42.36
2019-04-07T15:17:09.462Z,43.03
2019-04-07T15:19:41.152Z,42.41
2019-04-07T15:22:12.120Z,42.93
2019-04-07T15:24:42.865Z,42.31
2019-04-07T15:27:13.223Z,42.06
2019-04-07T15:29:45.045Z,41.44
2019-04-07T15:32:17.087Z,42.19
2019-04-07T15:34:47.902Z,41.85
2019-04-07T15:37:21.571Z,41.77
2019-04-07T15:40:00.451Z,41.81
2019-04-07T15:42:35.178Z,42.65
2019-04-07T15:45:11.263Z,43.42
2019-04-07T15:47:42.274Z,43.80
2019-04-07T15:50:13.790Z,43.93
2019-04-07T15:52:46.973Z,43.75
2019-04-07T15:55:17.640Z,44.19
2019-04-07T15:57:51.130Z,44.19
2019-04-07T16:00:23.811Z,44.42
2019-04-07T16:03:00.292Z,44.98
2019-04-07T16:05:38.036Z,45.01
2019-04-07T16:08:05.247Z,45.04
2019-04-07T16:10:41.351Z,44.91
2019-04-07T16:13:15.479Z,45.79
2019-04-07T16:15:53.675Z,46.40
2019-04-07T16:18:26.345Z,46.32
2019-04-07T16:20:58.028Z,46.59
2019-04-07T16:23:28.352Z,46.75
2019-04-07T16:26:00.584Z,46.72
2019-04-07T16:28:30.860Z,46.77
2019-04-07T16:31:01.563Z,46.09
2019-04-07T16:33:34.112Z,46.49
2019-04-07T16:36:04.403Z,46.36
2019-04-07T16:38:35.320Z,46.50
2019-04-07T16:41:06.559Z,46.93
2019-04-07T16:43:37.970Z,46.88
2019-04-07T16:46:08.852Z,47.32
2019-04-07T16:48:40.261Z,47.79
2019-04-07T16:51:11.281Z,47.20
2019-04-07T16:53:43.332Z,47.57
2019-04-07T16:56:14.802Z,47.36
2019-04-07T16:58:50.503Z,47.47
2019-04-07T17:01:24.591Z,47.14
2019-04-07T17:03:56.493Z,47.27
2019-04-07T17:06:31.897Z,47.66
2019-04-07T17:08:59.254Z,47.71
2019-04-07T17:11:32.259Z,47.45
2019-04-07T17:14:03.251Z,48.05
2019-04-07T17:16:34.655Z,48.14
2019-04-07T17:19:05.238Z,47.93
2019-04-07T17:21:37.669Z,48.22
2019-04-07T17:24:07.937Z,48.46
2019-04-07T17:26:39.405Z,48.88
2019-04-07T17:29:09.808Z,48.89
2019-04-07T17:31:41.126Z,48.74
2019-04-07T17:34:13.217Z,49.40
2019-04-07T17:36:44.062Z,49.44
2019-04-07T17:39:42.624Z,49.21
2019-04-07T17:42:14.424Z,49.02
2019-04-07T17:45:15.115Z,48.99
2019-04-07T17:48:23.379Z,49.33
2019-04-07T17:51:06.350Z,49.47
2019-04-07T17:53:45.361Z,49.71
2019-04-07T17:56:30.006Z,49.46
2019-04-07T17:59:10.323Z,49.65
2019-04-07T18:02:04.444Z,49.48
2019-04-07T18:04:55.035Z,49.60
2019-04-07T18:07:48.696Z,49.54
2019-04-07T18:10:39.155Z,49.74
2019-04-07T18:13:44.045Z,49.87
2019-04-07T18:16:31.870Z,49.51
2019-04-07T18:19:15.508Z,49.44
2019-04-07T18:22:10.709Z,49.53
2019-04-07T18:25:01.146Z,49.79
2019-04-07T18:27:48.681Z,49.94
2019-04-07T18:30:36.988Z,50.13
2019-04-07T18:33:25.345Z,50.35
2019-04-07T18:36:18.046Z,50.33
2019-04-07T18:39:03.336Z,50.70
2019-04-07T18:41:53.265Z,50.97
2019-04-07T18:44:58.521Z,51.74
2019-04-07T18:47:55.890Z,51.47
2019-04-07T18:50:43.344Z,51.91
2019-04-07T18:53:50.828Z,52.02
2019-04-07T18:56:49.570Z,52.24
2019-04-07T18:59:29.226Z,52.37
2019-04-07T19:02:18.220Z,52.94
2019-04-07T19:04:58.194Z,52.41
2019-04-07T19:07:48.555Z,52.89
2019-04-07T19:10:25.720Z,53.39
2019-04-07T19:13:17.677Z,52.84
2019-04-07T19:16:04.953Z,53.09
2019-04-07T19:19:03.271Z,53.21
2019-04-07T19:22:04.696Z,53.56
2019-04-07T19:25:05.098Z,53.38
2019-04-07T19:28:03.732Z,53.63
2019-04-07T19:30:52.466Z,53.46
2019-04-07T19:33:42.354Z,53.67
2019-04-07T19:36:30.519Z,53.68
2019-04-07T19:39:23.522Z,53.52
2019-04-07T19:42:18.186Z,53.85
2019-04-07T19:45:11.235Z,54.27
2019-04-07T19:47:59.383Z,54.42
2019-04-07T19:50:47.506Z,55.08
2019-04-07T19:53:32.672Z,55.41
2019-04-07T19:56:37.530Z,56.59
2019-04-07T19:59:30.171Z,56.57
2019-04-07T20:02:20.286Z,57.07
2019-04-07T20:05:10.128Z,57.17
2019-04-07T20:08:01.190Z,57.34
2019-04-07T20:10:52.336Z,57.47
2019-04-07T20:13:42.734Z,57.99
2019-04-07T20:16:36.340Z,58.07
2019-04-07T20:19:41.123Z,58.40
2019-04-07T20:22:30.694Z,59.14
2019-04-07T20:25:33.333Z,59.82
2019-04-07T20:28:23.000Z,59.99
2019-04-07T20:31:08.503Z,59.73
2019-04-07T20:34:05.554Z,59.77
2019-04-07T20:36:55.039Z,60.17
2019-04-07T20:39:34.190Z,60.00
2019-04-07T20:42:15.901Z,60.00
2019-04-07T20:45:05.702Z,60.15
2019-04-07T20:47:53.272Z,60.38
2019-04-07T20:50:48.835Z,60.28
2019-04-07T20:53:40.959Z,60.59
2019-04-07T20:56:31.399Z,61.49
2019-04-07T20:59:25.296Z,61.55
2019-04-07T21:02:12.688Z,61.61
2019-04-07T21:05:05.112Z,61.58
2019-04-07T21:08:00.814Z,61.46
2019-04-07T21:10:41.464Z,62.04
2019-04-07T21:13:21.757Z,62.03
2019-04-07T21:16:07.010Z,62.43
2019-04-07T21:19:12.465Z,62.44
2019-04-07T21:22:04.237Z,62.20
2019-04-07T21:24:45.537Z,62.59
2019-04-07T21:27:44.354Z,62.54
2019-04-07T21:30:36.833Z,62.71
2019-04-07T21:33:16.030Z,62.72
2019-04-07T21:36:20.493Z,63.92
2019-04-07T21:39:09.889Z,64.15
2019-04-07T21:41:59.173Z,64.32
2019-04-07T21:44:59.912Z,65.14
2019-04-07T21:47:42.602Z,65.83
2019-04-07T21:50:24.524Z,66.24
2019-04-07T21:53:33.546Z,65.74
2019-04-07T21:56:43.108Z,65.61
2019-04-07T21:59:21.476Z,65.94
2019-04-07T22:02:15.960Z,65.47
2019-04-07T22:04:58.829Z,64.64
2019-04-07T22:07:42.102Z,64.91
2019-04-07T22:10:13.598Z,65.63
2019-04-07T22:12:44.600Z,66.86
2019-04-07T22:15:15.384Z,66.60
2019-04-07T22:17:45.859Z,66.86
2019-04-07T22:20:18.868Z,67.16
2019-04-07T22:22:51.317Z,67.21
2019-04-07T22:25:36.211Z,66.61
2019-04-07T22:28:13.828Z,67.03
2019-04-07T22:30:45.510Z,66.82
2019-04-07T22:33:22.906Z,67.04
2019-04-07T22:35:51.400Z,66.06
2019-04-07T22:38:23.748Z,66.29
2019-04-07T22:40:54.372Z,66.43
2019-04-07T22:43:27.147Z,66.29
2019-04-07T22:46:06.248Z,66.56
2019-04-07T22:48:31.016Z,67.05
2019-04-07T22:51:04.123Z,66.11
2019-04-07T22:53:35.455Z,65.67
2019-04-07T22:56:07.800Z,66.34
2019-04-07T22:58:38.169Z,66.08
2019-04-07T23:01:09.038Z,66.92
2019-04-07T23:03:39.542Z,67.54
2019-04-07T23:06:10.612Z,67.92
2019-04-07T23:08:44.204Z,66.51
2019-04-07T23:11:16.120Z,67.62
2019-04-07T23:13:49.248Z,68.11
2019-04-07T23:16:20.333Z,68.33
2019-04-07T23:18:50.958Z,68.56
2019-04-07T23:21:21.514Z,69.15
2019-04-07T23:23:51.911Z,69.58
2019-04-07T23:26:26.452Z,70.53
2019-04-07T23:28:58.363Z,70.58
2019-04-07T23:31:30.416Z,70.80
2019-04-07T23:34:00.759Z,70.90
2019-04-07T23:36:32.003Z,70.98
2019-04-07T23:39:02.274Z,71.03
2019-04-07T23:41:34.008Z,70.71
2019-04-07T23:44:07.337Z,71.07
2019-04-07T23:46:37.934Z,70.90
2019-04-07T23:49:08.316Z,70.51
2019-04-07T23:51:41.407Z,70.06
2019-04-07T23:54:14.269Z,68.99
2019-04-07T23:56:47.756Z,68.15
2019-04-07T23:59:18.752Z,67.97
